Time;durP1;ratioP1;P1;durP2;ratioP2;P2;SDS_P1;SDS_P2;PMS_P1;PMS_P2;Temp;Humidity;BMP_temperature;BMP_pressure;BME280_temperature;BME280_humidity;BME280_pressure;Samples;Min_cycle;Max_cycle;Signal;HPM_P1;HPM_P2
2021/03/22 00:00:33;;;;;;;12.98;8.55;;;;;;;4.76;54.04;100183.52;1704799;83;21272;-65
2021/03/22 00:03:01;;;;;;;13.22;8.93;;;;;;;4.83;53.93;100185.77;1720549;83;21153;-52
2021/03/22 00:05:29;;;;;;;12.45;7.87;;;;;;;4.85;53.83;100174.92;1702976;83;21146;-65
2021/03/22 00:07:57;;;;;;;12.75;8.15;;;;;;;4.89;53.79;100171.45;1726040;83;21296;-52
2021/03/22 00:10:29;;;;;;;10.70;7.42;;;;;;;4.93;53.65;100160.62;1724595;83;21146;-53
2021/03/22 00:12:57;;;;;;;11.73;7.47;;;;;;;4.97;53.58;100156.29;1684745;83;21195;-52
2021/03/22 00:15:31;;;;;;;13.22;8.65;;;;;;;5.00;53.44;100145.87;1668235;85;21155;-54
2021/03/22 00:17:59;;;;;;;12.88;8.25;;;;;;;5.01;53.27;100134.59;1726109;83;21185;-53
2021/03/22 00:20:29;;;;;;;11.73;7.80;;;;;;;4.97;53.25;100136.73;1722388;81;21122;-53
2021/03/22 00:22:59;;;;;;;11.93;8.10;;;;;;;4.97;53.29;100129.79;1718155;83;21156;-65
2021/03/22 00:25:28;;;;;;;12.82;8.70;;;;;;;4.99;53.31;100125.46;1724393;83;21150;-52
2021/03/22 00:27:57;;;;;;;12.60;8.68;;;;;;;5.03;53.28;100119.81;1689897;85;21164;-53
2021/03/22 00:30:30;;;;;;;13.35;8.98;;;;;;;5.08;53.27;100114.65;1719957;83;21259;-52
2021/03/22 00:32:58;;;;;;;14.95;9.18;;;;;;;5.11;53.25;100117.25;1700627;83;21182;-53
2021/03/22 00:35:26;;;;;;;13.45;8.45;;;;;;;5.13;53.27;100117.71;1691901;85;21147;-54
2021/03/22 00:37:54;;;;;;;13.30;8.78;;;;;;;5.15;53.25;100110.77;1726076;83;21173;-66
2021/03/22 00:40:26;;;;;;;12.63;8.25;;;;;;;5.18;53.25;100108.17;1705878;83;21434;-65
2021/03/22 00:42:54;;;;;;;14.68;8.80;;;;;;;5.23;53.27;100103.42;1708891;83;21198;-65
2021/03/22 00:45:22;;;;;;;11.73;7.95;;;;;;;5.27;53.17;100097.35;1717029;82;21195;-65
2021/03/22 00:47:50;;;;;;;11.48;8.33;;;;;;;5.30;53.12;100089.54;1711521;83;21169;-66
2021/03/22 00:50:25;;;;;;;11.73;8.45;;;;;;;5.31;53.08;100086.03;1692927;84;21166;-52
2021/03/22 00:52:53;;;;;;;14.15;9.25;;;;;;;5.31;53.01;100083.01;1719623;83;21177;-53
2021/03/22 00:55:22;;;;;;;12.55;8.93;;;;;;;5.38;52.94;100072.16;1701643;84;21299;-66
2021/03/22 00:57:50;;;;;;;13.68;8.98;;;;;;;5.40;52.91;100072.17;1697415;83;21590;-65
2021/03/22 01:00:40;;;;;;;12.47;8.38;;;;;;;5.42;52.90;100070.44;1700028;84;21650;-52
2021/03/22 01:03:11;;;;;;;12.65;8.35;;;;;;;5.39;52.97;100063.91;1675865;84;21162;-53
2021/03/22 01:05:39;;;;;;;15.72;10.38;;;;;;;5.41;52.96;100063.03;1653707;86;21301;-53
2021/03/22 01:08:07;;;;;;;15.20;10.45;;;;;;;5.46;52.90;100062.62;1645175;86;21614;-65
2021/03/22 01:10:43;;;;;;;12.93;8.63;;;;;;;5.50;52.91;100059.16;1715836;84;21194;-54
2021/03/22 01:13:19;;;;;;;17.50;10.28;;;;;;;5.54;52.91;100058.72;1701995;83;21177;-66
2021/03/22 01:15:51;;;;;;;14.40;8.40;;;;;;;5.56;53.02;100058.73;1829676;77;22152;-64
2021/03/22 01:18:29;;;;;;;12.90;8.15;;;;;;;5.55;53.02;100059.16;1760811;80;21162;-51
2021/03/22 01:21:05;;;;;;;12.47;8.60;;;;;;;5.53;53.16;100057.42;1784638;80;21503;-53
2021/03/22 01:23:33;;;;;;;13.72;8.90;;;;;;;5.59;53.05;100054.38;1797763;80;21119;-53
2021/03/22 01:26:01;;;;;;;11.95;8.25;;;;;;;5.62;53.00;100047.02;1785232;79;21154;-66
2021/03/22 01:28:28;;;;;;;11.90;8.28;;;;;;;5.64;53.03;100043.52;1782878;79;21554;-65
2021/03/22 01:30:59;;;;;;;16.10;9.90;;;;;;;5.64;53.04;100033.08;1809846;79;21155;-65
2021/03/22 01:33:34;;;;;;;16.48;10.08;;;;;;;5.68;53.03;100037.00;1728318;82;21287;-53
2021/03/22 01:36:02;;;;;;;16.85;10.30;;;;;;;5.66;53.13;100032.65;1746717;82;21136;-66
2021/03/22 01:38:33;;;;;;;14.75;9.13;;;;;;;5.66;53.19;100023.51;1720642;82;21158;-53
2021/03/22 01:41:33;;;;;;;13.08;9.38;;;;;;;5.67;53.16;100019.17;1722617;83;21161;-65
2021/03/22 01:44:39;;;;;;;12.65;9.08;;;;;;;5.65;53.17;100018.30;1735104;82;21142;-65
2021/03/22 01:47:10;;;;;;;12.25;8.23;;;;;;;5.65;53.22;100020.91;1735451;83;21173;-65
2021/03/22 01:49:52;;;;;;;14.07;9.10;;;;;;;5.69;53.14;100019.16;1746464;82;21602;-54
2021/03/22 01:52:21;;;;;;;12.28;8.38;;;;;;;5.70;53.13;100025.71;1731371;82;21618;-66
2021/03/22 01:54:50;;;;;;;13.60;9.90;;;;;;;5.70;53.09;100024.41;1725582;83;21305;-53
2021/03/22 01:57:41;;;;;;;14.13;9.30;;;;;;;5.70;53.11;100023.10;1735263;82;21613;-54
2021/03/22 02:00:28;;;;;;;13.60;9.55;;;;;;;5.73;53.10;100018.30;1739215;82;21575;-55
2021/03/22 02:03:10;;;;;;;13.25;8.48;;;;;;;5.73;53.14;100010.05;1726953;83;21154;-67
2021/03/22 02:05:41;;;;;;;13.83;8.38;;;;;;;5.76;53.14;100013.09;1722716;83;21256;-65
2021/03/22 02:08:13;;;;;;;12.68;8.43;;;;;;;5.74;53.20;100012.21;1722841;82;21189;-53
2021/03/22 02:10:42;;;;;;;11.18;8.10;;;;;;;5.76;53.10;100007.41;1714553;81;21598;-66
2021/03/22 02:13:12;;;;;;;16.55;9.45;;;;;;;5.77;53.12;100002.63;1723006;83;21170;-65
2021/03/22 02:15:42;;;;;;;;;;;;;;;5.81;53.03;100007.44;1722307;82;21144;-52
2021/03/22 02:18:19;;;;;;;11.97;7.90;;;;;;;5.82;53.00;99998.73;1718662;82;20159;-65
2021/03/22 02:21:19;;;;;;;14.10;8.58;;;;;;;5.80;52.93;100000.47;1728879;82;21151;-53
2021/03/22 02:24:30;;;;;;;13.93;8.98;;;;;;;5.75;52.99;99998.28;1696970;84;21175;-67
2021/03/22 02:27:38;;;;;;;10.40;7.42;;;;;;;5.72;53.07;99996.55;1696489;83;21594;-52
2021/03/22 02:30:32;;;;;;;14.98;8.33;;;;;;;5.74;53.08;99995.23;1732797;82;21162;-64
2021/03/22 02:33:26;;;;;;;14.85;8.60;;;;;;;5.73;53.11;99992.19;1721189;82;21151;-64
2021/03/22 02:36:07;;;;;;;11.25;7.70;;;;;;;5.79;53.09;99995.67;1725775;83;21155;-53
2021/03/22 02:38:39;;;;;;;13.48;7.92;;;;;;;5.82;53.16;99993.52;1707006;83;21157;-65
2021/03/22 02:41:24;;;;;;;12.20;7.97;;;;;;;5.86;53.22;99993.06;1732973;82;21154;-65
2021/03/22 02:44:15;;;;;;;12.63;8.55;;;;;;;5.90;53.27;99985.67;1834770;77;22144;-54
2021/03/22 02:46:43;;;;;;;12.88;8.18;;;;;;;5.88;53.24;99986.99;1707176;82;21183;-66
2021/03/22 02:49:13;;;;;;;11.63;7.55;;;;;;;5.90;53.26;99983.95;1703477;84;21293;-66
2021/03/22 02:52:05;;;;;;;13.15;8.75;;;;;;;5.91;53.20;99979.58;1670328;86;21189;-66
2021/03/22 02:54:57;;;;;;;11.70;8.08;;;;;;;5.93;53.19;99975.23;1704252;83;21110;-54
2021/03/22 02:57:44;;;;;;;11.33;7.67;;;;;;;5.92;53.16;99971.76;1704120;83;21158;-54
2021/03/22 03:00:18;;;;;;;12.50;7.42;;;;;;;5.93;53.21;99973.50;1690975;84;21119;-65
2021/03/22 03:02:49;;;;;;;10.65;7.53;;;;;;;5.97;53.14;99970.44;1669264;86;21130;-53
2021/03/22 03:05:24;;;;;;;12.05;7.28;;;;;;;6.02;53.06;99970.04;1694771;83;21189;-55
2021/03/22 03:07:55;;;;;;;13.95;8.05;;;;;;;6.08;52.99;99965.23;1714893;84;21175;-66
2021/03/22 03:10:23;;;;;;;11.33;8.03;;;;;;;6.10;53.00;99958.27;1690513;84;21148;-53
2021/03/22 03:12:51;;;;;;;12.15;8.70;;;;;;;6.10;53.04;99955.66;1715908;83;21146;-53
2021/03/22 03:15:20;;;;;;;11.93;8.03;;;;;;;6.09;53.01;99956.11;1709140;83;21098;-53
2021/03/22 03:17:51;;;;;;;12.40;8.38;;;;;;;6.11;53.03;99953.48;1699354;84;21169;-66
2021/03/22 03:20:24;;;;;;;13.22;8.78;;;;;;;6.12;52.98;99949.99;1699572;83;21182;-66
2021/03/22 03:22:52;;;;;;;12.43;8.00;;;;;;;6.15;52.92;99946.52;1701699;83;21573;-54
2021/03/22 03:25:20;;;;;;;13.78;8.83;;;;;;;6.15;52.91;99951.75;1706459;84;21308;-66
2021/03/22 03:27:48;;;;;;;13.18;9.35;;;;;;;6.11;52.95;99946.95;1729541;83;21295;-54
2021/03/22 03:30:24;;;;;;;15.28;10.00;;;;;;;6.08;53.02;99948.25;1691421;84;21584;-65
2021/03/22 03:32:53;;;;;;;16.50;9.73;;;;;;;6.01;53.08;99946.09;1721727;82;21140;-53
2021/03/22 03:35:30;;;;;;;16.07;11.10;;;;;;;6.02;53.17;99945.22;1705391;83;21170;-53
2021/03/22 03:37:58;;;;;;;16.97;12.00;;;;;;;6.06;53.16;99937.81;1728450;81;21294;-52
2021/03/22 03:40:31;;;;;;;16.60;11.50;;;;;;;6.10;53.08;99943.48;1692916;84;21163;-65
2021/03/22 03:42:59;;;;;;;20.60;12.37;;;;;;;6.13;53.00;99940.43;1699293;84;21555;-65
2021/03/22 03:45:29;;;;;;;20.88;11.60;;;;;;;6.08;52.99;99943.02;1723592;83;21299;-65
2021/03/22 03:47:59;;;;;;;19.02;12.28;;;;;;;6.03;53.12;99943.05;1711833;83;21261;-62
2021/03/22 03:50:29;;;;;;;24.12;13.38;;;;;;;6.00;53.14;99939.13;1763969;80;21141;-66
2021/03/22 03:52:58;;;;;;;20.17;12.43;;;;;;;5.96;53.27;99936.05;1756932;82;21179;-65
2021/03/22 03:55:29;;;;;;;20.37;13.00;;;;;;;5.94;53.34;99926.91;1756269;82;21182;-65
2021/03/22 03:57:57;;;;;;;22.80;12.63;;;;;;;5.95;53.33;99931.69;1755269;82;21188;-66
2021/03/22 04:00:32;;;;;;;26.10;12.95;;;;;;;5.94;53.37;99928.22;1756890;80;21558;-66
2021/03/22 04:03:35;;;;;;;28.07;15.63;;;;;;;5.98;53.40;99922.97;1759305;81;21165;-66
2021/03/22 04:06:11;;;;;;;23.18;15.38;;;;;;;6.03;53.37;99927.78;1684098;85;21285;-56
2021/03/22 04:08:48;;;;;;;19.87;12.68;;;;;;;6.03;53.40;99922.14;1691386;84;21279;-52
2021/03/22 04:11:25;;;;;;;20.68;12.00;;;;;;;6.03;53.47;99923.45;1816863;77;22622;-64
2021/03/22 04:13:53;;;;;;;22.42;12.85;;;;;;;5.99;53.47;99926.02;1762096;81;21550;-53
2021/03/22 04:16:22;;;;;;;30.55;13.58;;;;;;;6.06;53.52;99927.78;1761784;80;21130;-66
2021/03/22 04:18:50;;;;;;;18.12;10.85;;;;;;;6.13;53.63;99929.98;1761525;81;21585;-54
2021/03/22 04:21:22;;;;;;;21.40;10.85;;;;;;;6.21;53.51;99930.81;1761786;81;21185;-66
2021/03/22 04:23:50;;;;;;;16.70;10.25;;;;;;;6.24;53.36;99932.11;1761860;81;21138;-54
2021/03/22 04:26:18;;;;;;;18.40;10.93;;;;;;;6.26;53.39;99926.45;1718524;83;21185;-54
2021/03/22 04:28:47;;;;;;;16.82;10.70;;;;;;;6.28;53.39;99934.30;1726739;83;21126;-66
2021/03/22 04:31:16;;;;;;;38.45;12.73;;;;;;;6.28;53.40;99929.93;1700646;83;21226;-66
2021/03/22 04:33:45;;;;;;;21.10;11.35;;;;;;;6.38;55.50;99930.35;1701250;84;21630;-54
2021/03/22 04:36:13;;;;;;;17.70;11.38;;;;;;;6.58;54.40;99923.33;1694553;83;21139;-54
2021/03/22 04:38:41;;;;;;;20.72;11.18;;;;;;;6.62;53.84;99919.41;1702469;84;21166;-54
2021/03/22 04:41:09;;;;;;;23.02;11.15;;;;;;;6.67;53.47;99916.77;1696290;84;21150;-67
2021/03/22 04:43:41;;;;;;;20.37;11.05;;;;;;;6.72;53.26;99920.23;1716446;83;21153;-54
2021/03/22 04:46:10;;;;;;;20.15;11.97;;;;;;;6.78;53.09;99918.02;1696473;82;21162;-67
2021/03/22 04:48:40;;;;;;;21.42;11.08;;;;;;;6.80;52.95;99914.54;1722585;83;21110;-67
2021/03/22 04:51:07;;;;;;;24.65;11.97;;;;;;;6.84;52.88;99907.08;1718697;83;21122;-66
2021/03/22 04:53:35;;;;;;;25.25;13.55;;;;;;;6.89;52.76;99911.42;1715134;83;21187;-66
2021/03/22 04:56:07;;;;;;;20.20;12.20;;;;;;;6.93;52.67;99906.19;1717181;82;21162;-54
2021/03/22 04:58:37;;;;;;;17.65;11.55;;;;;;;6.97;52.64;99909.65;1714061;83;21171;-67
2021/03/22 05:01:08;;;;;;;21.90;11.35;;;;;;;7.03;52.51;99916.16;1718158;83;21309;-54
2021/03/22 05:03:36;;;;;;;18.75;11.20;;;;;;;7.05;52.49;99913.55;1717410;82;21150;-66
2021/03/22 05:06:05;;;;;;;20.32;11.28;;;;;;;7.05;52.49;99914.41;1719589;83;21182;-54
2021/03/22 05:08:33;;;;;;;17.57;10.68;;;;;;;7.10;52.51;99910.44;1718281;83;21142;-54
2021/03/22 05:11:01;;;;;;;18.98;10.70;;;;;;;7.13;52.48;99915.66;1694542;84;21154;-54
2021/03/22 05:13:31;;;;;;;17.37;11.35;;;;;;;7.16;52.51;99913.48;1690672;84;21618;-66
2021/03/22 05:15:59;;;;;;;17.48;12.25;;;;;;;7.18;52.44;99908.66;1698343;84;21210;-67
2021/03/22 05:18:31;;;;;;;19.45;12.37;;;;;;;7.24;52.37;99906.47;1690702;84;21190;-56
2021/03/22 05:21:02;;;;;;;19.92;11.83;;;;;;;7.23;52.35;99902.96;1676497;84;21179;-55
2021/03/22 05:23:31;;;;;;;18.12;12.05;;;;;;;7.20;52.40;99906.05;1698640;83;21146;-65
2021/03/22 05:25:59;;;;;;;16.95;11.18;;;;;;;7.14;52.67;99900.39;1700004;84;21907;-66
2021/03/22 05:28:31;;;;;;;18.40;11.73;;;;;;;7.11;52.65;99905.22;1669033;86;21188;-54
2021/03/22 05:30:59;;;;;;;19.00;11.85;;;;;;;7.04;52.82;99902.66;1667027;85;21277;-54
2021/03/22 05:33:27;;;;;;;19.10;11.65;;;;;;;7.02;52.99;99896.56;1664106;85;21213;-54
2021/03/22 05:35:58;;;;;;;17.35;12.25;;;;;;;7.07;52.90;99896.95;1625661;87;21682;-66
2021/03/22 05:38:25;;;;;;;18.42;11.55;;;;;;;7.14;52.79;99891.23;1670749;84;21748;-54
2021/03/22 05:41:04;;;;;;;21.20;13.08;;;;;;;7.24;52.65;99889.45;1695342;83;21312;-66
2021/03/22 05:44:04;;;;;;;20.15;14.40;;;;;;;7.31;52.43;99883.27;1697693;84;21139;-55
2021/03/22 05:46:50;;;;;;;;;;;;;;;7.36;52.31;99884.56;1677156;84;21586;-53
2021/03/22 05:49:29;;;;;;;21.37;12.82;;;;;;;7.39;52.53;99876.69;1692272;83;20176;-54
2021/03/22 05:52:20;;;;;;;19.00;11.85;;;;;;;7.39;52.53;99875.38;1700075;84;21704;-54
2021/03/22 05:55:15;;;;;;;19.23;12.58;;;;;;;7.38;52.39;99871.87;1699870;84;21139;-64
2021/03/22 05:58:05;;;;;;;18.48;12.07;;;;;;;7.40;52.57;99867.95;1677870;84;21180;-53
2021/03/22 06:00:56;;;;;;;17.23;12.00;;;;;;;7.49;52.82;99877.05;1677673;84;21165;-54
2021/03/22 06:03:47;;;;;;;15.68;11.55;;;;;;;7.61;52.67;99868.65;1704916;84;21332;-52
2021/03/22 06:06:36;;;;;;;17.10;11.75;;;;;;;7.68;52.46;99860.75;1668810;86;21238;-53
2021/03/22 06:09:37;;;;;;;16.62;11.60;;;;;;;7.81;52.62;99865.85;1623136;87;21681;-64
2021/03/22 06:12:36;;;;;;;16.95;11.10;;;;;;;7.99;52.39;99865.69;1671898;85;21162;-54
2021/03/22 06:15:12;;;;;;;19.77;13.20;;;;;;;8.13;52.24;99853.75;1699178;84;21127;-64
2021/03/22 06:18:13;;;;;;;18.48;12.68;;;;;;;8.30;52.18;99851.39;1691779;83;21149;-53
2021/03/22 06:20:41;;;;;;;19.70;12.03;;;;;;;8.45;51.74;99851.65;1699265;84;21182;-54
2021/03/22 06:23:21;;;;;;;18.27;12.63;;;;;;;8.52;51.03;99850.73;1699735;83;21190;-64
2021/03/22 06:25:49;;;;;;;17.75;12.28;;;;;;;8.59;50.94;99854.13;1691981;84;21159;-53
2021/03/22 06:28:24;;;;;;;16.95;11.65;;;;;;;8.64;50.32;99852.32;1700159;83;21146;-64
2021/03/22 06:31:08;;;;;;;15.15;9.68;;;;;;;8.70;50.69;99855.30;1700082;84;21321;-65
2021/03/22 06:33:43;;;;;;;15.58;10.68;;;;;;;8.78;49.62;99854.33;1700020;84;21564;-64
2021/03/22 06:36:19;;;;;;;11.90;8.23;;;;;;;8.84;50.41;99851.17;1697308;84;21170;-65
2021/03/22 06:38:52;;;;;;;11.68;9.65;;;;;;;9.03;50.43;99855.75;1688305;84;21526;-65
2021/03/22 06:41:42;;;;;;;14.93;9.93;;;;;;;9.10;49.91;99857.83;1691352;84;21211;-65
2021/03/22 06:44:36;;;;;;;14.47;9.37;;;;;;;9.20;49.57;99858.98;1699784;83;21599;-54
2021/03/22 06:47:24;;;;;;;13.00;8.85;;;;;;;9.31;49.72;99860.12;1699481;84;21163;-53
2021/03/22 06:49:56;;;;;;;12.75;8.98;;;;;;;9.42;48.76;99856.03;1698696;84;21159;-54
2021/03/22 06:52:25;;;;;;;12.78;9.50;;;;;;;9.42;47.71;99857.34;1688602;83;21175;-53
2021/03/22 06:54:56;;;;;;;11.10;8.30;;;;;;;9.48;48.37;99856.37;1665507;84;21174;-54
2021/03/22 06:57:26;;;;;;;12.28;8.65;;;;;;;9.62;48.27;99857.02;1695530;83;21795;-53
2021/03/22 07:00:18;;;;;;;10.63;8.15;;;;;;;9.75;48.11;99859.41;1672364;86;21310;-64
2021/03/22 07:02:58;;;;;;;13.53;9.00;;;;;;;9.87;47.61;99866.25;1696972;83;21570;-64
2021/03/22 07:05:32;;;;;;;11.20;8.30;;;;;;;9.90;46.85;99867.05;1699897;84;21195;-64
2021/03/22 07:08:08;;;;;;;12.00;8.45;;;;;;;9.93;45.19;99863.05;1695104;83;21174;-64
2021/03/22 07:10:42;;;;;;;15.53;8.58;;;;;;;9.96;44.02;99864.74;1696032;83;21646;-64
2021/03/22 07:13:28;;;;;;;12.63;7.65;;;;;;;9.96;43.69;99866.05;1664546;85;21559;-64
2021/03/22 07:16:14;;;;;;;11.57;8.35;;;;;;;10.01;43.79;99869.94;1741239;82;21178;-64
2021/03/22 07:19:04;;;;;;;8.65;6.97;;;;;;;10.04;43.05;99864.16;1747518;82;21561;-64
2021/03/22 07:21:32;;;;;;;9.50;6.55;;;;;;;10.16;40.54;99863.05;1751236;82;21581;-64
2021/03/22 07:24:20;;;;;;;9.35;6.25;;;;;;;10.23;38.96;99867.31;1748182;82;21119;-64
2021/03/22 07:27:11;;;;;;;10.05;6.70;;;;;;;10.26;38.26;99869.03;1739542;82;21582;-54
2021/03/22 07:30:21;;;;;;;7.55;5.67;;;;;;;10.28;37.74;99865.92;1747464;82;21099;-54
2021/03/22 07:33:00;;;;;;;9.00;7.05;;;;;;;10.30;37.38;99861.94;1721354;82;21195;-54
2021/03/22 07:35:53;;;;;;;12.65;8.58;;;;;;;10.42;37.83;99855.16;1853073;77;22550;-63
2021/03/22 07:38:30;;;;;;;14.13;9.10;;;;;;;10.43;37.53;99857.33;1784343;78;21554;-53
2021/03/22 07:41:15;;;;;;;9.68;6.67;;;;;;;10.45;36.74;99856.41;1790957;80;21542;-54
2021/03/22 07:43:54;;;;;;;9.75;6.25;;;;;;;10.56;36.91;99845.23;1767968;80;21523;-62
2021/03/22 07:46:55;;;;;;;8.60;6.08;;;;;;;10.70;37.77;99849.31;1775525;79;21126;-53
2021/03/22 07:49:50;;;;;;;9.18;6.22;;;;;;;10.79;35.47;99851.75;1758290;81;21170;-54
2021/03/22 07:52:31;;;;;;;8.43;6.15;;;;;;;10.81;36.40;99835.94;1728254;83;21192;-64
2021/03/22 07:55:38;;;;;;;8.23;6.33;;;;;;;10.94;36.73;99840.48;1727490;83;21174;-54
2021/03/22 07:58:48;;;;;;;12.63;7.50;;;;;;;10.95;35.79;99846.16;1726900;82;21534;-63
2021/03/22 08:01:25;;;;;;;9.65;7.50;;;;;;;10.97;36.11;99845.21;1722741;83;21194;-65
2021/03/22 08:04:26;;;;;;;11.70;7.90;;;;;;;11.01;37.00;99851.30;1727798;82;21127;-56
2021/03/22 08:07:49;;;;;;;11.68;7.90;;;;;;;11.09;36.55;99847.16;1737443;82;21716;-53
2021/03/22 08:10:27;;;;;;;10.93;7.20;;;;;;;11.05;36.25;99844.17;1737075;82;21166;-64
2021/03/22 08:13:16;;;;;;;18.50;10.32;;;;;;;11.07;36.93;99837.95;1735077;82;21592;-64
2021/03/22 08:16:24;;;;;;;10.85;7.62;;;;;;;11.13;36.88;99837.82;1725173;82;21126;-63
2021/03/22 08:19:00;;;;;;;9.78;7.28;;;;;;;11.12;36.46;99834.77;1724580;82;21170;-64
2021/03/22 08:21:46;;;;;;;15.38;7.60;;;;;;;11.07;36.81;99837.95;1707187;82;21168;-54
2021/03/22 08:25:04;;;;;;;9.18;6.15;;;;;;;11.16;37.34;99834.27;1736407;82;21566;-63
2021/03/22 08:27:34;;;;;;;16.17;9.33;;;;;;;11.26;37.12;99827.85;1736844;82;21166;-64
2021/03/22 08:30:37;;;;;;;13.50;8.80;;;;;;;11.30;37.40;99836.56;1737246;82;21233;-55
2021/03/22 08:33:31;;;;;;;9.83;7.28;;;;;;;11.30;36.99;99829.98;1714736;82;21634;-54
2021/03/22 08:36:21;;;;;;;14.05;10.32;;;;;;;11.35;37.06;99830.73;1728085;82;21142;-54
2021/03/22 08:39:22;;;;;;;13.55;9.73;;;;;;;11.27;36.51;99825.63;1723805;83;21601;-64
2021/03/22 08:42:11;;;;;;;11.20;7.97;;;;;;;11.20;36.33;99829.34;1723438;81;21208;-54
2021/03/22 08:45:02;;;;;;;10.08;7.40;;;;;;;11.12;36.17;99820.75;1752040;81;21118;-55
2021/03/22 08:47:59;;;;;;;13.00;8.75;;;;;;;11.20;36.19;99819.24;1751319;81;21165;-55
2021/03/22 08:50:31;;;;;;;12.13;8.53;;;;;;;11.15;35.63;99816.27;1726877;81;21174;-56
2021/03/22 08:53:12;;;;;;;32.50;18.67;;;;;;;11.11;35.86;99817.23;1763361;81;21167;-55
2021/03/22 08:55:48;;;;;;;20.25;11.90;;;;;;;11.10;35.98;99817.28;1755052;81;21115;-63
2021/03/22 08:58:35;;;;;;;11.95;8.18;;;;;;;11.01;35.06;99810.48;1753691;82;21169;-55
2021/03/22 09:01:29;;;;;;;10.63;7.37;;;;;;;10.95;34.87;99806.20;1759656;81;21130;-54
2021/03/22 09:04:25;;;;;;;9.10;6.42;;;;;;;10.91;33.33;99804.53;1767545;81;21144;-55
2021/03/22 09:07:14;;;;;;;12.68;9.23;;;;;;;10.84;33.46;99806.45;1771250;79;21143;-55
2021/03/22 09:09:45;;;;;;;9.68;7.55;;;;;;;10.76;33.96;99802.27;1776444;81;21305;-64
2021/03/22 09:12:35;;;;;;;18.87;14.43;;;;;;;10.69;34.25;99798.45;1774764;81;21535;-54
2021/03/22 09:15:35;;;;;;;8.90;7.67;;;;;;;10.62;33.85;99803.86;1777237;81;21154;-64
2021/03/22 09:18:12;;;;;;;12.28;7.62;;;;;;;10.56;34.10;99810.14;1745786;81;21158;-64
2021/03/22 09:20:56;;;;;;;15.72;9.43;;;;;;;10.56;34.51;99808.39;1751399;81;21267;-55
2021/03/22 09:23:35;;;;;;;7.85;6.05;;;;;;;10.48;34.72;99808.11;1753699;82;21194;-54
2021/03/22 09:26:09;;;;;;;7.83;5.55;;;;;;;10.26;35.18;99813.80;1752621;81;21134;-55
2021/03/22 09:28:50;;;;;;;7.05;5.47;;;;;;;10.26;35.18;99813.80;1749018;81;21558;-65
2021/03/22 09:31:23;;;;;;;7.80;5.40;;;;;;;10.24;35.30;99812.96;1771568;81;21155;-64
2021/03/22 09:34:05;;;;;;;5.97;4.12;;;;;;;10.23;36.22;99808.59;1761786;81;21372;-64
2021/03/22 09:36:42;;;;;;;10.90;5.87;;;;;;;10.33;36.26;99810.15;1775735;80;21171;-55
2021/03/22 09:39:28;;;;;;;7.78;4.90;;;;;;;10.38;36.56;99808.73;1756494;80;21328;-54
2021/03/22 09:42:17;;;;;;;8.20;4.50;;;;;;;10.36;37.25;99807.46;1778824;80;21174;-55
2021/03/22 09:45:00;;;;;;;5.80;3.80;;;;;;;10.15;37.02;99808.76;1774702;81;21190;-56
2021/03/22 09:47:35;;;;;;;5.35;3.77;;;;;;;9.96;36.98;99801.64;1764963;80;21137;-55
2021/03/22 09:50:23;;;;;;;6.25;4.50;;;;;;;9.94;37.90;99809.58;1765354;81;21124;-64
2021/03/22 09:52:59;;;;;;;7.12;5.05;;;;;;;10.01;38.35;99802.42;1773224;80;21117;-54
2021/03/22 09:55:32;;;;;;;6.72;4.80;;;;;;;10.01;39.19;99800.27;1772661;81;21159;-55
2021/03/22 09:58:35;;;;;;;5.80;4.12;;;;;;;9.95;39.20;99803.86;1772441;80;21290;-64
2021/03/22 10:01:07;;;;;;;6.90;4.85;;;;;;;9.92;39.93;99804.80;1745952;81;21173;-64
2021/03/22 10:03:48;;;;;;;6.20;4.28;;;;;;;9.86;40.20;99804.91;1762437;81;21123;-64
2021/03/22 10:06:30;;;;;;;7.30;4.55;;;;;;;9.85;40.52;99807.58;1778238;80;21130;-64
2021/03/22 10:09:04;;;;;;;5.42;4.05;;;;;;;9.89;41.12;99794.80;1829867;77;22131;-53
2021/03/22 10:11:37;;;;;;;6.45;4.60;;;;;;;9.88;40.99;99800.48;1786284;80;21138;-62
2021/03/22 10:14:05;;;;;;;13.22;7.33;;;;;;;9.88;41.32;99801.80;1772054;80;21154;-54
2021/03/22 10:16:37;;;;;;;17.27;9.88;;;;;;;9.87;41.33;99801.84;1793030;80;21158;-63
2021/03/22 10:19:22;;;;;;;33.63;16.62;;;;;;;9.94;41.34;99792.92;1761794;81;21256;-54
2021/03/22 10:22:05;;;;;;;13.50;7.20;;;;;;;10.03;41.26;99786.17;1762676;80;21166;-64
2021/03/22 10:25:03;;;;;;;8.05;5.00;;;;;;;10.09;41.20;99787.37;1728300;83;21280;-64
2021/03/22 10:27:37;;;;;;;6.25;4.72;;;;;;;9.69;41.74;99784.19;1716042;82;21340;-63
2021/03/22 10:30:17;;;;;;;6.10;4.35;;;;;;;9.14;43.17;99790.80;1720582;83;21165;-63
2021/03/22 10:33:01;;;;;;;6.50;4.15;;;;;;;9.07;43.92;99786.53;1705660;84;21292;-54
2021/03/22 10:35:49;;;;;;;6.28;4.35;;;;;;;10.08;42.27;99782.16;1754304;81;21138;-54
2021/03/22 10:38:25;;;;;;;7.25;4.05;;;;;;;10.40;42.00;99774.08;1729488;81;21323;-53
2021/03/22 10:40:54;;;;;;;7.03;3.83;;;;;;;10.70;41.92;99757.19;1727575;83;21143;-64
2021/03/22 10:43:35;;;;;;;5.65;3.87;;;;;;;10.88;41.06;99755.89;1734613;82;21150;-54
2021/03/22 10:46:19;;;;;;;5.45;3.77;;;;;;;10.96;40.58;99754.42;1755696;82;21167;-63
2021/03/22 10:49:09;;;;;;;4.95;3.40;;;;;;;10.91;40.26;99751.03;1725718;83;21158;-55
2021/03/22 10:51:46;;;;;;;4.95;3.67;;;;;;;10.90;40.10;99742.72;1698330;82;21147;-54
2021/03/22 10:54:17;;;;;;;5.10;3.37;;;;;;;10.86;39.93;99741.47;1728628;82;21150;-64
2021/03/22 10:56:49;;;;;;;;;;;;;;;10.89;39.68;99739.20;1750174;82;21167;-55
2021/03/22 10:59:27;;;;;;;4.05;2.62;;;;;;;10.82;39.78;99733.22;1755635;82;20172;-63
2021/03/22 11:01:57;;;;;;;4.28;2.60;;;;;;;10.89;40.31;99731.30;1728172;82;21122;-56
2021/03/22 11:04:34;;;;;;;6.92;3.37;;;;;;;11.12;40.20;99731.20;1739466;81;21557;-62
2021/03/22 11:07:15;;;;;;;4.72;3.00;;;;;;;11.17;39.29;99725.38;1702802;83;21195;-55
2021/03/22 11:10:02;;;;;;;4.65;3.42;;;;;;;11.11;39.24;99721.57;1753089;81;21127;-64
2021/03/22 11:12:31;;;;;;;3.27;2.47;;;;;;;11.13;40.09;99717.98;1748656;82;21196;-55
2021/03/22 11:15:10;;;;;;;4.40;2.90;;;;;;;11.36;39.96;99717.86;1712147;84;21103;-64
2021/03/22 11:17:41;;;;;;;6.60;4.30;;;;;;;11.57;39.85;99720.81;1749031;82;21574;-55
2021/03/22 11:20:13;;;;;;;5.90;4.58;;;;;;;11.68;38.58;99721.39;1712574;84;21825;-64
2021/03/22 11:22:41;;;;;;;;;;;;;;;11.63;39.44;99714.06;1750809;82;21182;-55
2021/03/22 11:25:34;;;;;;;6.00;4.15;;;;;;;11.66;39.59;99708.70;1763603;81;20142;-55
2021/03/22 11:28:28;;;;;;;6.62;4.83;;;;;;;11.84;38.86;99703.84;1739093;80;21204;-64
2021/03/22 11:31:24;;;;;;;7.30;4.90;;;;;;;11.65;38.59;99705.66;1779176;81;21532;-55
2021/03/22 11:34:03;;;;;;;9.05;6.00;;;;;;;11.55;38.79;99702.86;1757755;80;21234;-55
2021/03/22 11:36:38;;;;;;;8.98;5.62;;;;;;;11.35;38.53;99704.70;1748415;82;21152;-63
2021/03/22 11:39:24;;;;;;;7.95;5.70;;;;;;;11.16;38.63;99706.05;1760383;81;21160;-63
2021/03/22 11:41:59;;;;;;;7.35;5.90;;;;;;;11.08;38.92;99705.84;1765789;81;21124;-63
2021/03/22 11:44:33;;;;;;;8.53;6.22;;;;;;;10.97;39.07;99709.60;1748117;82;21152;-55
2021/03/22 11:47:37;;;;;;;8.78;6.33;;;;;;;10.89;39.53;99706.29;1748352;82;21248;-63
2021/03/22 11:50:36;;;;;;;17.82;11.95;;;;;;;10.84;39.83;99699.83;1750164;81;21144;-64
2021/03/22 11:53:17;;;;;;;14.70;10.15;;;;;;;10.77;39.87;99700.88;1757191;81;21107;-64
2021/03/22 11:55:58;;;;;;;12.43;7.42;;;;;;;10.79;39.61;99695.59;1711362;83;21175;-55
2021/03/22 11:58:39;;;;;;;8.88;7.15;;;;;;;10.85;39.79;99698.93;1737723;82;21205;-64
2021/03/22 12:01:22;;;;;;;10.55;7.58;;;;;;;10.87;39.58;99693.61;1711569;84;21261;-55
2021/03/22 12:04:07;;;;;;;9.50;6.80;;;;;;;10.88;39.61;99695.81;1760525;81;21265;-64
2021/03/22 12:06:55;;;;;;;11.88;6.42;;;;;;;10.88;39.24;99690.08;1747512;81;21135;-54
2021/03/22 12:09:25;;;;;;;9.78;7.03;;;;;;;11.01;39.67;99689.34;1783950;80;21249;-54
2021/03/22 12:11:54;;;;;;;8.93;6.67;;;;;;;11.13;39.99;99678.94;1773968;80;21136;-54
2021/03/22 12:14:22;;;;;;;10.03;6.85;;;;;;;11.35;40.02;99676.61;1761908;80;21654;-55
2021/03/22 12:16:57;;;;;;;9.60;7.50;;;;;;;11.55;39.29;99676.50;1761447;81;21206;-63
2021/03/22 12:19:31;;;;;;;10.13;7.60;;;;;;;11.49;40.26;99674.91;1770044;80;21138;-64
2021/03/22 12:21:59;;;;;;;8.93;7.22;;;;;;;11.27;41.12;99679.89;1792617;80;21119;-64